Time;durP1;ratioP1;P1;durP2;ratioP2;P2;SDS_P1;SDS_P2;PMS_P1;PMS_P2;Temp;Humidity;BMP_temperature;BMP_pressure;BME280_temperature;BME280_humidity;BME280_pressure;Samples;Min_cycle;Max_cycle;Signal;HPM_P1;HPM_P2
2022/04/15 00:00:43;;;;;;;;;;;;;;;;;;2141175;27;20018;-44
2022/04/15 00:01:44;;;;;;;;;;;;;;;;;;2141314;27;19945;-44
2022/04/15 00:02:46;;;;;;;;;;;;;;;;;;2141267;27;20372;-47
2022/04/15 00:03:47;;;;;;;;;;;;;;;;;;2141187;27;19930;-43
2022/04/15 00:04:48;;;;;;;;;;;;;;;;;;2141124;27;19923;-43
2022/04/15 00:05:49;;;;;;;;;;;;;;;;;;2141239;27;19977;-44
2022/04/15 00:06:50;;;;;;;;;;;;;;;;;;2141000;27;19926;-47
2022/04/15 00:07:51;;;;;;;;;;;;;;;;;;2141298;27;19930;-44
2022/04/15 00:08:52;;;;;;;;;;;;;;;;;;2141168;27;20377;-44
2022/04/15 00:09:53;;;;;;;;;;;;;;;;;;2141115;27;20355;-43
2022/04/15 00:10:54;;;;;;;;;;;;;;;;;;2141152;27;19930;-43
2022/04/15 00:11:56;;;;;;;;;;;;;;;;;;2141189;27;20009;-48
2022/04/15 00:12:57;;;;;;;;;;;;;;;;;;2141129;27;20339;-44
2022/04/15 00:13:58;;;;;;;;;;;;;;;;;;2141249;27;20299;-44
2022/04/15 00:14:59;;;;;;;;;;;;;;;;;;2141342;27;19930;-44
2022/04/15 00:16:00;;;;;;;;;;;;;;;;;;2140935;27;20075;-48
2022/04/15 00:17:01;;;;;;;;;;;;;;;;;;2141025;27;20419;-48
2022/04/15 00:18:01;;;;;;;;;;;;;;;;;;2141221;27;19954;-44
2022/04/15 00:19:03;;;;;;;;;;;;;;;;;;2141118;27;19922;-47
2022/04/15 00:20:04;;;;;;;;;;;;;;;;;;2141066;27;19950;-47
2022/04/15 00:21:05;;;;;;;;;;;;;;;;;;2141123;27;20021;-47
2022/04/15 00:22:06;;;;;;;;;;;;;;;;;;2141020;27;20025;-44
2022/04/15 00:23:07;;;;;;;;;;;;;;;;;;2141308;27;20009;-48
2022/04/15 00:24:08;;;;;;;;;;;;;;;;;;2141121;27;19923;-44
2022/04/15 00:25:10;;;;;;;;;;;;;;;;;;2141100;27;19970;-44
2022/04/15 00:26:11;;;;;;;;;;;;;;;;;;2141167;27;20009;-48
2022/04/15 00:27:12;;;;;;;;;;;;;;;;;;2141098;27;19923;-48
2022/04/15 00:28:13;;;;;;;;;;;;;;;;;;2141040;27;20009;-47
2022/04/15 00:29:15;;;;;;;;;;;;;;;;;;2141220;27;19939;-47
2022/04/15 00:30:16;;;;;;;;;;;;;;;;;;2141096;27;20343;-44
2022/04/15 00:31:17;;;;;;;;;;;;;;;;;;2141016;27;19930;-48
2022/04/15 00:32:18;;;;;;;;;;;;;;;;;;2141142;27;19922;-44
2022/04/15 00:33:19;;;;;;;;;;;;;;;;;;2141147;27;19930;-47
2022/04/15 00:34:20;;;;;;;;;;;;;;;;;;2141082;27;20328;-43
2022/04/15 00:35:21;;;;;;;;;;;;;;;;;;2141178;27;19954;-47
2022/04/15 00:36:22;;;;;;;;;;;;;;;;;;2132292;27;19971;-48
2022/04/15 00:37:23;;;;;;;;;;;;;;;;;;2132338;27;20038;-47
2022/04/15 00:38:24;;;;;;;;;;;;;;;;;;2132430;27;19930;-44
2022/04/15 00:39:25;;;;;;;;;;;;;;;;;;2132449;27;19923;-44
2022/04/15 00:40:26;;;;;;;;;;;;;;;;;;2132300;27;20387;-48
2022/04/15 00:41:26;;;;;;;;;;;;;;;;;;2132431;27;20009;-48
2022/04/15 00:42:27;;;;;;;;;;;;;;;;;;2132454;27;19923;-48
2022/04/15 00:43:28;;;;;;;;;;;;;;;;;;2132413;27;19958;-44
2022/04/15 00:44:29;;;;;;;;;;;;;;;;;;2132327;27;19927;-43
2022/04/15 00:45:30;;;;;;;;;;;;;;;;;;2132393;27;20029;-44
2022/04/15 00:46:31;;;;;;;;;;;;;;;;;;2132393;27;19931;-48
2022/04/15 00:47:32;;;;;;;;;;;;;;;;;;2132281;27;19969;-43
2022/04/15 00:48:33;;;;;;;;;;;;;;;;;;2132515;27;20287;-44
2022/04/15 00:49:34;;;;;;;;;;;;;;;;;;2132206;27;19998;-47
2022/04/15 00:50:35;;;;;;;;;;;;;;;;;;2133914;27;19946;-43
2022/04/15 00:51:36;;;;;;;;;;;;;;;;;;2140963;27;20010;-47
2022/04/15 00:52:37;;;;;;;;;;;;;;;;;;2140785;27;19961;-44
2022/04/15 00:53:38;;;;;;;;;;;;;;;;;;2141066;27;20243;-48
2022/04/15 00:54:39;;;;;;;;;;;;;;;;;;2141015;27;20407;-44
2022/04/15 00:55:40;;;;;;;;;;;;;;;;;;2140727;27;19989;-48
2022/04/15 00:56:41;;;;;;;;;;;;;;;;;;2140801;27;19930;-47
2022/04/15 00:57:42;;;;;;;;;;;;;;;;;;2140867;27;20301;-48
2022/04/15 00:58:43;;;;;;;;;;;;;;;;;;2140811;27;19922;-48
2022/04/15 00:59:44;;;;;;;;;;;;;;;;;;2141013;27;19980;-43
2022/04/15 01:00:45;;;;;;;;;;;;;;;;;;2140775;27;19930;-47
2022/04/15 01:01:46;;;;;;;;;;;;;;;;;;2140880;27;19965;-48
2022/04/15 01:02:47;;;;;;;;;;;;;;;;;;2140573;27;19923;-47
2022/04/15 01:03:48;;;;;;;;;;;;;;;;;;2141001;27;19922;-44
2022/04/15 01:04:49;;;;;;;;;;;;;;;;;;2140968;27;19971;-48
2022/04/15 01:05:50;;;;;;;;;;;;;;;;;;2140924;27;20014;-43
2022/04/15 01:06:51;;;;;;;;;;;;;;;;;;2140869;27;20063;-47
2022/04/15 01:07:52;;;;;;;;;;;;;;;;;;2140944;27;20018;-43
2022/04/15 01:08:53;;;;;;;;;;;;;;;;;;2141160;27;19922;-44
2022/04/15 01:09:54;;;;;;;;;;;;;;;;;;2140827;27;19923;-43
2022/04/15 01:10:55;;;;;;;;;;;;;;;;;;2140814;27;19930;-47
2022/04/15 01:11:56;;;;;;;;;;;;;;;;;;2140759;27;20013;-44
2022/04/15 01:12:57;;;;;;;;;;;;;;;;;;2140889;27;20018;-44
2022/04/15 01:14:18;;;;;;;;;;;;;;;;;;2140819;27;19922;-43
2022/04/15 01:15:18;;;;;;;;;;;;;;;;;;2140774;27;20287;-44
2022/04/15 01:16:20;;;;;;;;;;;;;;;;;;2140669;27;20167;-47
2022/04/15 01:17:21;;;;;;;;;;;;;;;;;;2140950;27;19969;-47
2022/04/15 01:18:22;;;;;;;;;;;;;;;;;;2140830;27;19923;-43
2022/04/15 01:19:23;;;;;;;;;;;;;;;;;;2140732;27;19982;-43
2022/04/15 01:20:24;;;;;;;;;;;;;;;;;;2140600;27;19923;-43
2022/04/15 01:21:25;;;;;;;;;;;;;;;;;;2140795;27;20010;-43
2022/04/15 01:22:26;;;;;;;;;;;;;;;;;;2140747;27;19930;-44
2022/04/15 01:23:27;;;;;;;;;;;;;;;;;;2140748;27;19973;-47
2022/04/15 01:24:28;;;;;;;;;;;;;;;;;;2140625;27;19927;-47
2022/04/15 01:25:29;;;;;;;;;;;;;;;;;;2140727;27;20022;-44
2022/04/15 01:26:30;;;;;;;;;;;;;;;;;;2140591;27;20089;-43
2022/04/15 01:27:30;;;;;;;;;;;;;;;;;;2140630;27;20372;-48
2022/04/15 01:28:31;;;;;;;;;;;;;;;;;;2140652;27;19970;-44
2022/04/15 01:29:32;;;;;;;;;;;;;;;;;;2140636;27;20017;-43
2022/04/15 01:30:33;;;;;;;;;;;;;;;;;;2140683;27;19930;-48
2022/04/15 01:31:34;;;;;;;;;;;;;;;;;;2140707;27;19969;-48
2022/04/15 01:32:35;;;;;;;;;;;;;;;;;;2140512;27;19929;-48
2022/04/15 01:33:36;;;;;;;;;;;;;;;;;;2140684;27;20013;-48
2022/04/15 01:34:37;;;;;;;;;;;;;;;;;;2140634;27;20368;-44
2022/04/15 01:35:38;;;;;;;;;;;;;;;;;;2138301;27;20014;-44
2022/04/15 01:36:39;;;;;;;;;;;;;;;;;;2132026;27;20014;-47
2022/04/15 01:37:40;;;;;;;;;;;;;;;;;;2132124;27;20293;-44
2022/04/15 01:38:40;;;;;;;;;;;;;;;;;;2131927;27;20027;-43
2022/04/15 01:39:42;;;;;;;;;;;;;;;;;;2132028;27;20059;-47
2022/04/15 01:40:43;;;;;;;;;;;;;;;;;;2131889;27;19923;-48
2022/04/15 01:41:45;;;;;;;;;;;;;;;;;;2132033;27;19930;-48
2022/04/15 01:42:45;;;;;;;;;;;;;;;;;;2132053;27;20038;-47
2022/04/15 01:43:46;;;;;;;;;;;;;;;;;;2131946;27;19929;-43
2022/04/15 01:44:47;;;;;;;;;;;;;;;;;;2132108;27;19964;-44
2022/04/15 01:45:48;;;;;;;;;;;;;;;;;;2131917;27;19965;-48
2022/04/15 01:46:49;;;;;;;;;;;;;;;;;;2133428;27;19923;-48
2022/04/15 01:47:52;;;;;;;;;;;;;;;;;;2140654;27;20340;-45
2022/04/15 01:48:52;;;;;;;;;;;;;;;;;;2140740;27;20040;-44
2022/04/15 01:49:53;;;;;;;;;;;;;;;;;;2140544;27;20291;-48
2022/04/15 01:50:54;;;;;;;;;;;;;;;;;;2140550;27;20367;-49
2022/04/15 01:51:55;;;;;;;;;;;;;;;;;;2140614;27;19923;-47
2022/04/15 01:52:56;;;;;;;;;;;;;;;;;;2140593;27;20009;-47
2022/04/15 01:53:57;;;;;;;;;;;;;;;;;;2140479;27;19923;-48
2022/04/15 01:54:58;;;;;;;;;;;;;;;;;;2140531;27;20195;-44
2022/04/15 01:55:59;;;;;;;;;;;;;;;;;;2140627;27;19922;-47
2022/04/15 01:57:00;;;;;;;;;;;;;;;;;;2140374;27;20343;-44
2022/04/15 01:58:01;;;;;;;;;;;;;;;;;;2140589;27;20351;-47
2022/04/15 01:59:01;;;;;;;;;;;;;;;;;;2140413;27;19958;-44
2022/04/15 02:00:02;;;;;;;;;;;;;;;;;;2140556;27;19923;-44
2022/04/15 02:01:03;;;;;;;;;;;;;;;;;;2140374;27;19966;-44
2022/04/15 02:02:05;;;;;;;;;;;;;;;;;;2140400;27;19923;-44
2022/04/15 02:03:06;;;;;;;;;;;;;;;;;;2140382;27;20398;-48
2022/04/15 02:04:07;;;;;;;;;;;;;;;;;;2140558;27;19923;-44
2022/04/15 02:05:08;;;;;;;;;;;;;;;;;;2140669;27;19922;-47
2022/04/15 02:06:09;;;;;;;;;;;;;;;;;;2140438;27;19923;-47
2022/04/15 02:07:10;;;;;;;;;;;;;;;;;;2140458;27;19927;-48
2022/04/15 02:08:11;;;;;;;;;;;;;;;;;;2140396;27;19922;-44
2022/04/15 02:09:12;;;;;;;;;;;;;;;;;;2140409;27;19971;-48
2022/04/15 02:10:13;;;;;;;;;;;;;;;;;;2140504;27;19923;-47
2022/04/15 02:11:14;;;;;;;;;;;;;;;;;;2140447;27;19962;-47
2022/04/15 02:12:15;;;;;;;;;;;;;;;;;;2140517;27;19923;-44
2022/04/15 02:13:16;;;;;;;;;;;;;;;;;;2140580;27;19964;-44
2022/04/15 02:14:18;;;;;;;;;;;;;;;;;;2139487;27;20265;-43
2022/04/15 02:15:19;;;;;;;;;;;;;;;;;;2140302;27;20001;-47
2022/04/15 02:16:20;;;;;;;;;;;;;;;;;;2140500;27;19966;-44
2022/04/15 17:03:06;;;;;;;5.26;2.74;;;;;;;;;;4258770;27;20617;-48
2022/04/15 17:04:10;;;;;;;6.93;2.80;;;;;;;;;;2121184;28;20380;-48
2022/04/15 17:05:11;;;;;;;5.13;2.47;;;;;;;;;;2121545;28;20047;-43
2022/04/15 17:06:13;;;;;;;5.07;2.67;;;;;;;;;;2118907;28;20048;-47
2022/04/15 17:07:14;;;;;;;3.90;2.35;;;;;;;;;;2112794;28;20047;-47
2022/04/15 17:08:15;;;;;;;5.50;2.70;;;;;;;;;;2112978;28;20087;-48
2022/04/15 17:09:16;;;;;;;6.47;2.78;;;;;;;;;;2112818;28;20678;-47
2022/04/15 17:10:17;;;;;;;8.00;2.97;;;;;;;;;;2112541;28;20126;-47
2022/04/15 17:11:18;;;;;;;6.75;3.05;;;;;;;;;;2112559;28;20639;-47
2022/04/15 17:12:19;;;;;;;10.10;4.45;;;;;;;;;;2112824;28;20122;-48
2022/04/15 17:13:22;;;;;;;12.75;4.85;;;;;;;;;;2112672;28;20044;-47
2022/04/15 17:14:23;;;;;;;19.42;7.38;;;;;;;;;;2112860;28;20464;-47
2022/04/15 17:15:24;;;;;;;26.08;10.90;;;;;;;;;;2112718;28;20075;-46
2022/04/15 17:16:28;;;;;;;15.93;7.03;;;;;;;;;;2112820;28;20048;-47
2022/04/15 17:17:29;;;;;;;16.08;7.55;;;;;;;;;;2112687;28;20367;-44
2022/04/15 17:18:31;;;;;;;22.92;8.82;;;;;;;;;;2113004;28;20127;-48
2022/04/15 17:19:34;;;;;;;12.93;6.40;;;;;;;;;;2112611;28;20471;-47
2022/04/15 17:20:35;;;;;;;11.25;6.22;;;;;;;;;;2112630;28;20516;-47
2022/04/15 17:21:37;;;;;;;13.05;6.63;;;;;;;;;;2112369;28;20484;-46
2022/04/15 17:22:37;;;;;;;13.23;5.28;;;;;;;;;;2112588;28;20071;-47
2022/04/15 17:23:39;;;;;;;8.67;4.00;;;;;;;;;;2112962;28;20074;-50
2022/04/15 17:24:40;;;;;;;;;;;;;;;;;;2112951;28;20479;-47
2022/04/15 17:25:43;;;;;;;6.15;3.70;;;;;;;;;;2112589;28;19920;-51
2022/04/15 17:26:44;;;;;;;6.82;2.95;;;;;;;;;;2112506;28;20119;-47
2022/04/15 17:27:45;;;;;;;6.40;3.33;;;;;;;;;;2112385;28;20194;-47
2022/04/15 17:28:46;;;;;;;5.50;2.38;;;;;;;;;;2112479;28;20506;-49
2022/04/15 17:29:47;;;;;;;4.97;3.15;;;;;;;;;;2112611;28;20039;-48
2022/04/15 17:30:52;;;;;;;7.75;3.00;;;;;;;;;;2112538;28;20092;-47
2022/04/15 17:31:53;;;;;;;6.63;3.50;;;;;;;;;;2112460;28;20500;-47
2022/04/15 17:32:54;;;;;;;6.93;3.13;;;;;;;;;;2112641;28;20047;-48
2022/04/15 17:33:56;;;;;;;5.80;3.20;;;;;;;;;;2112703;28;20036;-47
2022/04/15 17:34:57;;;;;;;7.97;4.00;;;;;;;;;;2112526;28;20190;-45
2022/04/15 17:36:00;;;;;;;6.83;3.30;;;;;;;;;;2112413;28;20067;-45
2022/04/15 17:37:01;;;;;;;10.27;4.20;;;;;;;;;;2112720;28;20123;-47
2022/04/15 17:38:02;;;;;;;8.30;3.38;;;;;;;;;;2112567;28;20075;-48
2022/04/15 17:39:03;;;;;;;5.90;3.35;;;;;;;;;;2112654;28;20047;-48
2022/04/15 17:40:05;;;;;;;4.63;2.95;;;;;;;;;;2112533;28;20126;-47
2022/04/15 17:41:07;;;;;;;7.45;3.35;;;;;;;;;;2112462;28;20131;-47
2022/04/15 17:42:07;;;;;;;8.60;3.28;;;;;;;;;;2112570;28;20051;-48
2022/04/15 17:43:09;;;;;;;8.27;3.60;;;;;;;;;;2112621;28;20055;-48
2022/04/15 17:44:11;;;;;;;6.70;2.88;;;;;;;;;;2112543;28;20126;-48
2022/04/15 17:45:12;;;;;;;8.35;3.38;;;;;;;;;;2112593;28;20111;-50
2022/04/15 17:46:13;;;;;;;9.07;2.92;;;;;;;;;;2112504;28;20135;-48
2022/04/15 17:47:14;;;;;;;4.20;2.63;;;;;;;;;;2112563;28;20055;-44
2022/04/15 17:48:17;;;;;;;5.97;3.20;;;;;;;;;;2112629;28;20135;-47
2022/04/15 17:49:19;;;;;;;8.10;3.00;;;;;;;;;;2112389;28;20126;-47
2022/04/15 17:50:20;;;;;;;6.97;2.97;;;;;;;;;;2112486;28;20182;-47
2022/04/15 17:51:21;;;;;;;6.20;2.67;;;;;;;;;;2112416;28;20117;-48
2022/04/15 17:52:22;;;;;;;4.78;2.83;;;;;;;;;;2112500;28;20127;-50
2022/04/15 17:53:24;;;;;;;7.65;2.42;;;;;;;;;;2112491;28;20130;-49
2022/04/15 17:54:25;;;;;;;5.05;2.47;;;;;;;;;;2112595;28;20135;-48
2022/04/15 17:55:26;;;;;;;5.47;2.63;;;;;;;;;;2112290;28;20056;-48
2022/04/15 17:56:27;;;;;;;4.13;2.50;;;;;;;;;;2112294;28;20043;-48
2022/04/15 17:57:28;;;;;;;5.03;2.67;;;;;;;;;;2112520;28;20359;-47
2022/04/15 17:58:29;;;;;;;5.55;2.33;;;;;;;;;;2112224;28;20480;-48
2022/04/15 17:59:30;;;;;;;10.85;2.40;;;;;;;;;;2112344;28;20587;-48
2022/04/15 18:00:32;;;;;;;6.50;2.40;;;;;;;;;;2112373;28;20047;-47
2022/04/15 18:01:34;;;;;;;4.85;2.15;;;;;;;;;;2112207;28;20432;-47
2022/04/15 18:02:35;;;;;;;7.50;2.60;;;;;;;;;;2109672;28;20048;-47
2022/04/15 18:03:36;;;;;;;4.70;2.47;;;;;;;;;;2106776;28;20056;-48
2022/04/15 18:04:38;;;;;;;6.15;2.92;;;;;;;;;;2106720;28;20359;-50
2022/04/15 18:05:40;;;;;;;8.15;3.05;;;;;;;;;;2106806;28;20135;-48
2022/04/15 18:06:41;;;;;;;7.22;2.72;;;;;;;;;;2106739;28;20127;-47
2022/04/15 18:07:42;;;;;;;6.80;3.00;;;;;;;;;;2106707;28;20579;-47
2022/04/15 18:08:44;;;;;;;5.77;2.87;;;;;;;;;;2106853;28;20123;-47
2022/04/15 18:09:45;;;;;;;5.43;2.72;;;;;;;;;;2106684;28;20143;-51
2022/04/15 18:10:47;;;;;;;8.03;2.83;;;;;;;;;;2106751;28;20484;-48
2022/04/15 18:11:48;;;;;;;7.25;3.05;;;;;;;;;;2106600;28;20079;-47
2022/04/15 18:12:49;;;;;;;7.38;3.25;;;;;;;;;;2106802;28;20177;-51
2022/04/15 18:13:51;;;;;;;11.05;3.22;;;;;;;;;;2106834;28;20089;-47
2022/04/15 18:14:52;;;;;;;9.02;3.60;;;;;;;;;;2106845;28;20127;-48
2022/04/15 18:15:53;;;;;;;8.25;3.78;;;;;;;;;;2106657;28;20051;-48
2022/04/15 18:16:54;;;;;;;8.05;3.28;;;;;;;;;;2106633;28;20044;-48
2022/04/15 18:17:55;;;;;;;6.40;3.20;;;;;;;;;;2106742;28;20052;-50
2022/04/15 18:18:56;;;;;;;8.17;3.53;;;;;;;;;;2106710;28;20477;-50
2022/04/15 18:19:58;;;;;;;10.63;3.50;;;;;;;;;;2106701;28;20173;-51
2022/04/15 18:20:59;;;;;;;11.15;3.72;;;;;;;;;;2106510;28;20136;-48
2022/04/15 18:22:00;;;;;;;12.73;4.13;;;;;;;;;;2106716;28;20139;-47
2022/04/15 18:23:01;;;;;;;10.20;4.60;;;;;;;;;;2106614;28;20044;-49
2022/04/15 18:24:03;;;;;;;16.48;6.03;;;;;;;;;;2106673;28;20070;-48
2022/04/15 18:25:04;;;;;;;18.48;5.57;;;;;;;;;;2106647;28;20075;-50
2022/04/15 18:26:06;;;;;;;14.00;4.95;;;;;;;;;;2106448;28;20127;-48
2022/04/15 18:27:07;;;;;;;16.33;5.55;;;;;;;;;;2106603;28;20071;-49
2022/04/15 18:28:09;;;;;;;19.98;5.53;;;;;;;;;;2106665;28;20473;-49
2022/04/15 18:29:10;;;;;;;17.00;6.05;;;;;;;;;;2106455;28;20050;-48
2022/04/15 18:30:11;;;;;;;13.45;5.35;;;;;;;;;;2106726;28;20050;-50
2022/04/15 18:31:13;;;;;;;9.10;3.75;;;;;;;;;;2106621;28;20051;-48
2022/04/15 18:32:19;;;;;;;18.17;6.25;;;;;;;;;;2106440;28;20052;-48
2022/04/15 18:33:23;;;;;;;16.92;5.45;;;;;;;;;;2106565;28;20576;-51
2022/04/15 18:34:24;;;;;;;17.88;5.50;;;;;;;;;;2106458;28;20503;-48
2022/04/15 18:35:26;;;;;;;20.52;6.03;;;;;;;;;;2106458;28;20472;-49
2022/04/15 18:36:28;;;;;;;20.92;6.35;;;;;;;;;;2106499;28;20127;-48
2022/04/15 18:37:29;;;;;;;17.05;5.13;;;;;;;;;;2106483;28;20572;-47
2022/04/15 18:38:34;;;;;;;14.68;5.10;;;;;;;;;;2106544;28;20098;-48
2022/04/15 18:39:35;;;;;;;11.68;4.35;;;;;;;;;;2106691;28;20051;-47
2022/04/15 18:40:36;;;;;;;18.50;6.17;;;;;;;;;;2106476;28;20127;-47
2022/04/15 18:41:37;;;;;;;17.08;4.25;;;;;;;;;;2106337;28;20571;-47
2022/04/15 18:42:38;;;;;;;11.77;5.00;;;;;;;;;;2106573;28;20068;-47
2022/04/15 18:43:39;;;;;;;19.63;5.15;;;;;;;;;;2106550;28;20119;-48
2022/04/15 18:44:46;;;;;;;17.27;5.70;;;;;;;;;;2106638;28;20044;-48
2022/04/15 18:45:47;;;;;;;12.48;5.53;;;;;;;;;;2106863;28;20119;-47
2022/04/15 18:46:49;;;;;;;19.58;6.45;;;;;;;;;;2106346;28;20496;-48
2022/04/15 18:47:50;;;;;;;15.00;6.07;;;;;;;;;;2106443;28;20111;-47
2022/04/15 18:52:50;;;;;;;14.23;4.65;;;;;;;;;;2106523;28;20044;-48
2022/04/15 18:53:51;;;;;;;13.00;5.38;;;;;;;;;;2106608;28;20127;-48
2022/04/15 18:54:53;;;;;;;14.33;5.17;;;;;;;;;;2106448;28;20102;-47
2022/04/15 18:55:54;;;;;;;14.18;4.70;;;;;;;;;;2106327;28;20139;-46
2022/04/15 18:56:56;;;;;;;10.30;4.97;;;;;;;;;;2106397;28;20085;-50
2022/04/15 18:57:57;;;;;;;10.73;4.55;;;;;;;;;;2106251;28;20048;-50
2022/04/15 18:58:59;;;;;;;16.95;5.25;;;;;;;;;;2106179;28;20517;-50
2022/04/15 19:00:00;;;;;;;11.67;5.03;;;;;;;;;;2106396;28;20043;-48
2022/04/15 19:01:01;;;;;;;15.13;6.10;;;;;;;;;;2105293;28;20493;-48
2022/04/15 19:02:06;;;;;;;20.30;5.95;;;;;;;;;;2098077;28;20063;-49
2022/04/15 19:03:07;;;;;;;13.52;4.80;;;;;;;;;;2098213;28;20045;-48
2022/04/15 19:04:08;;;;;;;16.97;5.20;;;;;;;;;;2097926;28;20488;-51
2022/04/15 19:05:09;;;;;;;10.95;4.60;;;;;;;;;;2097978;28;20131;-47
2022/04/15 19:06:14;;;;;;;10.02;3.90;;;;;;;;;;2098062;28;20131;-47
2022/04/15 19:07:18;;;;;;;9.10;3.88;;;;;;;;;;2098190;28;20137;-47
2022/04/15 19:08:20;;;;;;;10.07;3.63;;;;;;;;;;2097893;28;20127;-47
2022/04/15 19:09:23;;;;;;;10.77;3.95;;;;;;;;;;2098508;28;20131;-49
2022/04/15 19:10:24;;;;;;;9.15;3.90;;;;;;;;;;2097938;28;20128;-47
2022/04/15 19:11:25;;;;;;;4.60;2.70;;;;;;;;;;2097813;28;20049;-49
2022/04/15 19:12:26;;;;;;;4.23;2.77;;;;;;;;;;2098022;28;20129;-49
2022/04/15 19:13:28;;;;;;;5.93;3.30;;;;;;;;;;2098088;28;20121;-48
2022/04/15 19:14:30;;;;;;;9.48;2.85;;;;;;;;;;2096994;28;20072;-48
2022/04/15 19:15:31;;;;;;;7.20;2.88;;;;;;;;;;2097991;28;20564;-44
2022/04/15 19:16:32;;;;;;;7.13;2.80;;;;;;;;;;2098061;28;20128;-45
2022/04/15 19:17:33;;;;;;;7.63;2.83;;;;;;;;;;2098071;28;20041;-45
2022/04/15 19:18:34;;;;;;;5.43;2.72;;;;;;;;;;2097923;28;20115;-43
2022/04/15 19:19:36;;;;;;;5.03;2.70;;;;;;;;;;2097807;28;20055;-43
2022/04/15 19:20:37;;;;;;;6.13;2.28;;;;;;;;;;2098034;28;20056;-43
2022/04/15 19:21:38;;;;;;;5.50;2.85;;;;;;;;;;2097710;28;20135;-43
2022/04/15 19:22:40;;;;;;;8.48;3.97;;;;;;;;;;2097937;28;20086;-44
2022/04/15 19:23:41;;;;;;;;;;;;;;;;;;2098309;28;20169;-43
2022/04/15 19:24:42;;;;;;;10.90;4.22;;;;;;;;;;2098005;28;19997;-44
2022/04/15 19:25:44;;;;;;;8.35;4.57;;;;;;;;;;2097956;28;20059;-44
2022/04/15 19:26:46;;;;;;;13.15;4.55;;;;;;;;;;2097787;28;20170;-44
2022/04/15 19:27:48;;;;;;;9.35;4.93;;;;;;;;;;2098077;28;20139;-44
2022/04/15 19:28:49;;;;;;;6.82;3.72;;;;;;;;;;2097977;28;20169;-44
2022/04/15 19:29:51;;;;;;;6.93;3.30;;;;;;;;;;2097748;28;20048;-44
2022/04/15 19:30:53;;;;;;;12.40;3.65;;;;;;;;;;2097905;28;20131;-44
2022/04/15 19:31:53;;;;;;;8.95;3.75;;;;;;;;;;2097838;28;20173;-44
2022/04/15 19:32:55;;;;;;;7.40;3.33;;;;;;;;;;2097690;28;20390;-43
2022/04/15 19:33:56;;;;;;;10.18;3.65;;;;;;;;;;2097796;28;20511;-43
2022/04/15 19:34:57;;;;;;;7.50;3.38;;;;;;;;;;2097720;28;20123;-43
2022/04/15 19:35:58;;;;;;;6.97;3.10;;;;;;;;;;2097862;28;20127;-44
2022/04/15 19:37:06;;;;;;;7.40;3.05;;;;;;;;;;2097811;28;20508;-44
2022/04/15 19:38:08;;;;;;;9.18;2.80;;;;;;;;;;2097911;28;20060;-45
2022/04/15 19:39:09;;;;;;;;;;;;;;;;;;2098428;28;20128;-44
2022/04/15 19:40:10;;;;;;;8.73;3.47;;;;;;;;;;2097747;28;20430;-43
2022/04/15 19:41:14;;;;;;;8.30;3.88;;;;;;;;;;2097699;28;20087;-44
2022/04/15 19:42:15;;;;;;;6.55;3.13;;;;;;;;;;2097677;28;20131;-44
2022/04/15 19:43:16;;;;;;;7.40;3.10;;;;;;;;;;2097921;28;20072;-44
2022/04/15 19:44:17;;;;;;;8.98;3.45;;;;;;;;;;2097742;28;20044;-43
2022/04/15 19:45:18;;;;;;;8.50;3.40;;;;;;;;;;2097718;28;20466;-43
2022/04/15 19:46:20;;;;;;;8.20;3.33;;;;;;;;;;2097616;28;20066;-43
2022/04/15 19:47:21;;;;;;;4.90;2.83;;;;;;;;;;2097896;28;20044;-44
2022/04/15 19:48:22;;;;;;;6.63;3.27;;;;;;;;;;2098005;28;20127;-48
2022/04/15 19:49:38;;;;;;;8.18;3.63;;;;;;;;;;2097685;28;20520;-47
2022/04/15 19:50:40;;;;;;;5.83;3.30;;;;;;;;;;2097640;28;20127;-48
2022/04/15 19:51:43;;;;;;;9.27;3.63;;;;;;;;;;2097595;28;20504;-48
2022/04/15 19:52:44;;;;;;;7.88;3.22;;;;;;;;;;2097657;28;20048;-48
2022/04/15 19:53:46;;;;;;;7.97;3.42;;;;;;;;;;2100064;28;20503;-47
2022/04/15 19:54:47;;;;;;;;;;;;;;;;;;2106530;28;20126;-48
2022/04/15 19:55:48;;;;;;;10.38;3.78;;;;;;;;;;2105947;28;19973;-48
2022/04/15 20:01:28;;;;;;;7.55;3.15;;;;;;;;;;2101280;28;20135;-47
2022/04/15 20:02:29;;;;;;;6.85;3.60;;;;;;;;;;2097708;28;20426;-47
2022/04/15 20:03:30;;;;;;;6.28;3.75;;;;;;;;;;2097611;28;20052;-48
2022/04/15 20:04:31;;;;;;;9.73;4.07;;;;;;;;;;2097551;28;20098;-47
2022/04/15 20:05:33;;;;;;;8.20;3.67;;;;;;;;;;2097897;28;20055;-46
2022/04/15 20:06:34;;;;;;;10.50;4.13;;;;;;;;;;2097463;28;20416;-46
2022/04/15 20:07:35;;;;;;;9.88;4.75;;;;;;;;;;2097685;28;20086;-48
2022/04/15 20:08:37;;;;;;;11.23;4.97;;;;;;;;;;2097620;28;20059;-46
2022/04/15 20:09:37;;;;;;;;;;;;;;;;;;2097945;28;20087;-47
2022/04/15 20:10:39;;;;;;;13.45;4.95;;;;;;;;;;2097473;28;19920;-47
2022/04/15 20:11:40;;;;;;;;;;;;;;;;;;2097949;28;20079;-46
2022/04/15 20:12:42;;;;;;;12.25;4.68;;;;;;;;;;2097425;28;19951;-49
2022/04/15 20:13:43;;;;;;;10.02;5.15;;;;;;;;;;2097652;28;20123;-48
2022/04/15 20:14:45;;;;;;;9.82;5.10;;;;;;;;;;2097605;28;20127;-47
2022/04/15 20:15:46;;;;;;;9.50;4.70;;;;;;;;;;2097496;28;20135;-48
2022/04/15 20:16:47;;;;;;;11.13;6.17;;;;;;;;;;2097426;28;20047;-46
2022/04/15 20:17:51;;;;;;;13.50;6.03;;;;;;;;;;2097556;28;20041;-46
2022/04/15 20:18:54;;;;;;;11.63;5.05;;;;;;;;;;2097498;28;20176;-47
2022/04/15 20:19:57;;;;;;;9.43;4.85;;;;;;;;;;2097476;28;20076;-48
2022/04/15 20:20:58;;;;;;;13.93;4.68;;;;;;;;;;2097902;28;20076;-47
2022/04/15 20:22:00;;;;;;;13.73;5.18;;;;;;;;;;2097380;28;20143;-47
2022/04/15 20:23:02;;;;;;;9.50;5.60;;;;;;;;;;2097555;28;20135;-46
2022/04/15 20:24:03;;;;;;;11.00;5.10;;;;;;;;;;2097533;28;20213;-47
2022/04/15 20:25:05;;;;;;;10.35;5.53;;;;;;;;;;2097654;28;20120;-47
2022/04/15 20:26:06;;;;;;;10.63;5.55;;;;;;;;;;2097094;28;20568;-50
2022/04/15 20:27:08;;;;;;;10.65;5.60;;;;;;;;;;2097652;28;20223;-44
2022/04/15 20:28:09;;;;;;;10.52;5.13;;;;;;;;;;2097596;28;20127;-44
2022/04/15 20:29:11;;;;;;;8.03;4.83;;;;;;;;;;2097490;28;20051;-43
2022/04/15 20:30:12;;;;;;;11.82;5.53;;;;;;;;;;2097656;28;20127;-43
2022/04/15 20:31:16;;;;;;;9.75;5.47;;;;;;;;;;2097519;28;20644;-44
2022/04/15 20:32:18;;;;;;;9.95;5.80;;;;;;;;;;2097551;28;20048;-44
2022/04/15 20:33:20;;;;;;;10.95;5.85;;;;;;;;;;2097619;28;20119;-45
2022/04/15 20:34:21;;;;;;;9.60;6.00;;;;;;;;;;2097505;28;20127;-47
2022/04/15 20:35:22;;;;;;;11.70;5.68;;;;;;;;;;2097441;28;20072;-50
2022/04/15 20:36:23;;;;;;;12.40;5.90;;;;;;;;;;2097589;28;20475;-43
2022/04/15 20:37:24;;;;;;;13.10;6.23;;;;;;;;;;2097362;28;20048;-44
2022/04/15 20:38:25;;;;;;;13.82;6.72;;;;;;;;;;2097597;28;20132;-43
2022/04/15 20:39:26;;;;;;;11.57;6.10;;;;;;;;;;2097527;28;20499;-43
2022/04/15 20:40:27;;;;;;;12.77;6.45;;;;;;;;;;2097357;28;20123;-43
2022/04/15 20:41:29;;;;;;;11.73;6.10;;;;;;;;;;2097225;28;20495;-44
2022/04/15 20:42:30;;;;;;;;;;;;;;;;;;2097933;28;20408;-47
2022/04/15 20:43:34;;;;;;;11.38;5.63;;;;;;;;;;2097334;28;19956;-48
2022/04/15 20:44:35;;;;;;;12.52;6.15;;;;;;;;;;2097410;28;20127;-47
2022/04/15 20:45:36;;;;;;;10.48;6.25;;;;;;;;;;2097416;28;20132;-47
2022/04/15 20:46:37;;;;;;;9.20;5.35;;;;;;;;;;2097494;28;20131;-50
2022/04/15 20:47:38;;;;;;;12.80;6.28;;;;;;;;;;2097431;28;20480;-46
2022/04/15 20:50:00;;;;;;;9.48;5.28;;;;;;;;;;2099672;28;20052;-47
2022/04/15 20:51:01;;;;;;;8.68;4.97;;;;;;;;;;2105580;28;20131;-47
2022/04/15 20:52:04;;;;;;;15.00;6.90;;;;;;;;;;2105709;28;20052;-47
2022/04/15 20:53:09;;;;;;;15.95;6.40;;;;;;;;;;2105635;28;20139;-47
2022/04/15 20:54:10;;;;;;;9.32;6.28;;;;;;;;;;2105827;28;20119;-48
2022/04/15 20:55:11;;;;;;;12.57;6.28;;;;;;;;;;2106009;28;20131;-43
2022/04/15 20:56:13;;;;;;;12.52;5.93;;;;;;;;;;2105595;28;20131;-43
2022/04/15 20:57:15;;;;;;;8.32;5.45;;;;;;;;;;2105800;28;20130;-43
2022/04/15 20:58:17;;;;;;;9.10;5.65;;;;;;;;;;2105780;28;20044;-43
2022/04/15 20:59:19;;;;;;;9.82;5.65;;;;;;;;;;2105713;28;20131;-43
2022/04/15 21:00:22;;;;;;;9.85;6.40;;;;;;;;;;2105655;28;20333;-44
2022/04/15 21:01:23;;;;;;;12.45;7.05;;;;;;;;;;2101481;28;20118;-43
2022/04/15 21:02:25;;;;;;;13.00;6.43;;;;;;;;;;2097276;28;20055;-44
2022/04/15 21:03:26;;;;;;;13.07;6.50;;;;;;;;;;2097454;28;20058;-44
2022/04/15 21:04:27;;;;;;;12.60;6.50;;;;;;;;;;2097241;28;20131;-44
2022/04/15 21:05:28;;;;;;;11.55;6.68;;;;;;;;;;2097446;28;20481;-43
2022/04/15 21:06:29;;;;;;;14.00;6.73;;;;;;;;;;2097210;28;20059;-43
2022/04/15 21:07:30;;;;;;;12.43;6.43;;;;;;;;;;2097111;28;20076;-43
2022/04/15 21:08:31;;;;;;;10.77;5.93;;;;;;;;;;2097332;28;20536;-45
2022/04/15 21:09:34;;;;;;;13.98;6.82;;;;;;;;;;2097311;28;20132;-43
2022/04/15 21:10:36;;;;;;;14.05;6.55;;;;;;;;;;2097226;28;20062;-43
2022/04/15 21:11:38;;;;;;;13.05;6.45;;;;;;;;;;2097486;28;20135;-43
2022/04/15 21:12:42;;;;;;;14.77;6.10;;;;;;;;;;2097196;28;20108;-43
2022/04/15 21:13:43;;;;;;;13.38;6.53;;;;;;;;;;2097098;28;20626;-43
2022/04/15 21:14:44;;;;;;;13.10;6.53;;;;;;;;;;2097358;28;20079;-43
2022/04/15 21:15:46;;;;;;;10.93;5.97;;;;;;;;;;2097444;28;20123;-43
2022/04/15 21:16:47;;;;;;;12.30;6.65;;;;;;;;;;2097176;28;20048;-42
2022/04/15 21:17:48;;;;;;;11.10;6.20;;;;;;;;;;2097580;28;20080;-47
2022/04/15 21:18:49;;;;;;;13.40;6.60;;;;;;;;;;2097199;28;20477;-46
2022/04/15 21:19:50;;;;;;;10.77;6.88;;;;;;;;;;2097107;28;20065;-47